sensor_id;sensor_type;location;lat;lon;timestamp;P1;durP1;ratioP1;P2;durP2;ratioP2
33876;SDS011;20166;51.738;7.158;2023-11-21T00:01:51;3.63;;;2.63;;
33876;SDS011;20166;51.738;7.158;2023-11-21T00:04:37;6.57;;;3.60;;
33876;SDS011;20166;51.738;7.158;2023-11-21T00:07:23;6.80;;;3.50;;
33876;SDS011;20166;51.738;7.158;2023-11-21T00:10:10;5.30;;;3.30;;
33876;SDS011;20166;51.738;7.158;2023-11-21T00:12:58;7.57;;;3.20;;
33876;SDS011;20166;51.738;7.158;2023-11-21T00:15:48;8.40;;;3.87;;
33876;SDS011;20166;51.738;7.158;2023-11-21T00:18:34;6.37;;;2.97;;
33876;SDS011;20166;51.738;7.158;2023-11-21T00:21:21;6.03;;;3.83;;
33876;SDS011;20166;51.738;7.158;2023-11-21T00:24:07;6.33;;;3.47;;
33876;SDS011;20166;51.738;7.158;2023-11-21T00:26:54;6.90;;;3.33;;
33876;SDS011;20166;51.738;7.158;2023-11-21T00:29:40;6.97;;;3.77;;
33876;SDS011;20166;51.738;7.158;2023-11-21T00:32:28;5.20;;;2.97;;
33876;SDS011;20166;51.738;7.158;2023-11-21T00:35:14;7.57;;;3.50;;
33876;SDS011;20166;51.738;7.158;2023-11-21T00:38:01;5.53;;;3.00;;
33876;SDS011;20166;51.738;7.158;2023-11-21T00:40:48;9.27;;;4.17;;
33876;SDS011;20166;51.738;7.158;2023-11-21T00:43:34;6.13;;;4.13;;
33876;SDS011;20166;51.738;7.158;2023-11-21T00:46:20;6.47;;;4.13;;
33876;SDS011;20166;51.738;7.158;2023-11-21T00:49:08;6.87;;;4.30;;
33876;SDS011;20166;51.738;7.158;2023-11-21T00:51:54;11.00;;;4.37;;
33876;SDS011;20166;51.738;7.158;2023-11-21T00:54:42;7.07;;;3.43;;
33876;SDS011;20166;51.738;7.158;2023-11-21T00:57:29;7.00;;;4.17;;
33876;SDS011;20166;51.738;7.158;2023-11-21T01:00:16;8.27;;;4.00;;
33876;SDS011;20166;51.738;7.158;2023-11-21T01:03:03;11.33;;;4.37;;
33876;SDS011;20166;51.738;7.158;2023-11-21T01:05:51;8.43;;;4.53;;
33876;SDS011;20166;51.738;7.158;2023-11-21T01:08:38;7.23;;;3.77;;
33876;SDS011;20166;51.738;7.158;2023-11-21T01:11:24;12.67;;;4.37;;
33876;SDS011;20166;51.738;7.158;2023-11-21T01:14:11;9.20;;;4.40;;
33876;SDS011;20166;51.738;7.158;2023-11-21T01:16:58;8.67;;;3.90;;
33876;SDS011;20166;51.738;7.158;2023-11-21T01:19:45;9.57;;;4.10;;
33876;SDS011;20166;51.738;7.158;2023-11-21T01:22:32;8.30;;;3.73;;
33876;SDS011;20166;51.738;7.158;2023-11-21T01:25:19;10.33;;;5.07;;
33876;SDS011;20166;51.738;7.158;2023-11-21T01:28:06;15.53;;;4.90;;
33876;SDS011;20166;51.738;7.158;2023-11-21T01:30:52;10.00;;;5.03;;
33876;SDS011;20166;51.738;7.158;2023-11-21T01:33:41;10.77;;;5.20;;
33876;SDS011;20166;51.738;7.158;2023-11-21T01:36:29;11.97;;;5.93;;
33876;SDS011;20166;51.738;7.158;2023-11-21T01:39:18;7.47;;;4.53;;
33876;SDS011;20166;51.738;7.158;2023-11-21T01:42:08;8.40;;;4.83;;
33876;SDS011;20166;51.738;7.158;2023-11-21T01:44:56;11.10;;;5.73;;
33876;SDS011;20166;51.738;7.158;2023-11-21T01:47:42;8.00;;;4.83;;
33876;SDS011;20166;51.738;7.158;2023-11-21T01:50:30;10.80;;;4.50;;
33876;SDS011;20166;51.738;7.158;2023-11-21T01:53:18;10.30;;;4.57;;
33876;SDS011;20166;51.738;7.158;2023-11-21T01:56:06;8.97;;;4.23;;
33876;SDS011;20166;51.738;7.158;2023-11-21T01:58:54;10.47;;;5.00;;
33876;SDS011;20166;51.738;7.158;2023-11-21T02:01:41;14.10;;;5.27;;
33876;SDS011;20166;51.738;7.158;2023-11-21T02:04:28;10.60;;;5.00;;
33876;SDS011;20166;51.738;7.158;2023-11-21T02:07:15;13.53;;;4.87;;
33876;SDS011;20166;51.738;7.158;2023-11-21T02:10:03;13.03;;;5.60;;
33876;SDS011;20166;51.738;7.158;2023-11-21T02:12:52;8.23;;;5.20;;
33876;SDS011;20166;51.738;7.158;2023-11-21T02:15:39;9.33;;;4.90;;
33876;SDS011;20166;51.738;7.158;2023-11-21T02:18:26;9.80;;;5.13;;
33876;SDS011;20166;51.738;7.158;2023-11-21T02:21:14;17.40;;;5.43;;
33876;SDS011;20166;51.738;7.158;2023-11-21T02:24:02;8.13;;;4.53;;
33876;SDS011;20166;51.738;7.158;2023-11-21T02:26:49;16.67;;;5.40;;
33876;SDS011;20166;51.738;7.158;2023-11-21T02:29:36;9.10;;;4.97;;
33876;SDS011;20166;51.738;7.158;2023-11-21T02:32:23;6.60;;;4.47;;
33876;SDS011;20166;51.738;7.158;2023-11-21T02:35:10;8.87;;;4.10;;
33876;SDS011;20166;51.738;7.158;2023-11-21T02:37:57;9.33;;;4.60;;
33876;SDS011;20166;51.738;7.158;2023-11-21T02:40:45;7.63;;;4.10;;
33876;SDS011;20166;51.738;7.158;2023-11-21T02:43:31;11.07;;;4.97;;
33876;SDS011;20166;51.738;7.158;2023-11-21T02:46:17;10.20;;;4.43;;
33876;SDS011;20166;51.738;7.158;2023-11-21T02:49:03;6.27;;;4.27;;
33876;SDS011;20166;51.738;7.158;2023-11-21T02:51:51;10.80;;;4.73;;
33876;SDS011;20166;51.738;7.158;2023-11-21T02:54:37;13.03;;;4.20;;
33876;SDS011;20166;51.738;7.158;2023-11-21T02:57:25;9.43;;;5.27;;
33876;SDS011;20166;51.738;7.158;2023-11-21T03:00:11;10.13;;;4.43;;
33876;SDS011;20166;51.738;7.158;2023-11-21T03:02:59;9.00;;;4.37;;
33876;SDS011;20166;51.738;7.158;2023-11-21T03:05:46;13.27;;;5.80;;
33876;SDS011;20166;51.738;7.158;2023-11-21T03:08:32;9.03;;;5.13;;
33876;SDS011;20166;51.738;7.158;2023-11-21T03:11:19;9.30;;;5.10;;
33876;SDS011;20166;51.738;7.158;2023-11-21T03:14:06;9.13;;;5.23;;
33876;SDS011;20166;51.738;7.158;2023-11-21T03:16:52;8.70;;;4.47;;
33876;SDS011;20166;51.738;7.158;2023-11-21T03:19:38;9.30;;;5.10;;
33876;SDS011;20166;51.738;7.158;2023-11-21T03:22:27;8.73;;;4.40;;
33876;SDS011;20166;51.738;7.158;2023-11-21T03:25:13;9.33;;;4.80;;
33876;SDS011;20166;51.738;7.158;2023-11-21T03:28:02;8.47;;;4.53;;
33876;SDS011;20166;51.738;7.158;2023-11-21T03:30:49;11.70;;;5.13;;
33876;SDS011;20166;51.738;7.158;2023-11-21T03:33:36;12.80;;;5.70;;
33876;SDS011;20166;51.738;7.158;2023-11-21T03:36:22;10.43;;;5.17;;
33876;SDS011;20166;51.738;7.158;2023-11-21T03:39:10;8.03;;;5.00;;
33876;SDS011;20166;51.738;7.158;2023-11-21T03:41:56;11.40;;;5.60;;
33876;SDS011;20166;51.738;7.158;2023-11-21T03:44:43;10.27;;;5.30;;
33876;SDS011;20166;51.738;7.158;2023-11-21T03:47:30;9.83;;;4.87;;
33876;SDS011;20166;51.738;7.158;2023-11-21T03:50:17;8.30;;;4.83;;
33876;SDS011;20166;51.738;7.158;2023-11-21T03:53:04;9.53;;;4.83;;
33876;SDS011;20166;51.738;7.158;2023-11-21T03:55:50;10.73;;;4.83;;
33876;SDS011;20166;51.738;7.158;2023-11-21T03:58:37;9.40;;;4.70;;
33876;SDS011;20166;51.738;7.158;2023-11-21T04:01:23;8.60;;;4.27;;
33876;SDS011;20166;51.738;7.158;2023-11-21T04:04:12;11.47;;;6.10;;
33876;SDS011;20166;51.738;7.158;2023-11-21T04:06:58;8.30;;;5.43;;
33876;SDS011;20166;51.738;7.158;2023-11-21T04:09:45;9.37;;;5.27;;
33876;SDS011;20166;51.738;7.158;2023-11-21T04:12:31;9.70;;;6.00;;
33876;SDS011;20166;51.738;7.158;2023-11-21T04:15:18;8.87;;;5.13;;
33876;SDS011;20166;51.738;7.158;2023-11-21T04:18:04;7.10;;;4.93;;
33876;SDS011;20166;51.738;7.158;2023-11-21T04:20:52;7.37;;;4.63;;
33876;SDS011;20166;51.738;7.158;2023-11-21T04:23:39;7.03;;;4.47;;
33876;SDS011;20166;51.738;7.158;2023-11-21T04:26:25;10.20;;;6.60;;
33876;SDS011;20166;51.738;7.158;2023-11-21T04:29:12;8.37;;;5.07;;
33876;SDS011;20166;51.738;7.158;2023-11-21T04:31:58;9.43;;;5.23;;
33876;SDS011;20166;51.738;7.158;2023-11-21T04:34:44;10.23;;;5.77;;
33876;SDS011;20166;51.738;7.158;2023-11-21T04:37:32;9.27;;;5.20;;
33876;SDS011;20166;51.738;7.158;2023-11-21T04:40:18;9.20;;;4.77;;
33876;SDS011;20166;51.738;7.158;2023-11-21T04:43:05;14.60;;;5.83;;
33876;SDS011;20166;51.738;7.158;2023-11-21T04:45:52;9.87;;;5.77;;
33876;SDS011;20166;51.738;7.158;2023-11-21T04:48:38;12.37;;;5.20;;
33876;SDS011;20166;51.738;7.158;2023-11-21T04:51:24;9.33;;;5.37;;
33876;SDS011;20166;51.738;7.158;2023-11-21T04:54:13;7.60;;;4.73;;
33876;SDS011;20166;51.738;7.158;2023-11-21T04:56:59;9.63;;;5.10;;
33876;SDS011;20166;51.738;7.158;2023-11-21T04:59:45;8.80;;;4.57;;
33876;SDS011;20166;51.738;7.158;2023-11-21T05:02:31;9.53;;;5.63;;
33876;SDS011;20166;51.738;7.158;2023-11-21T05:05:20;8.00;;;5.20;;
33876;SDS011;20166;51.738;7.158;2023-11-21T05:08:07;8.37;;;4.97;;
33876;SDS011;20166;51.738;7.158;2023-11-21T05:10:55;12.03;;;4.97;;
33876;SDS011;20166;51.738;7.158;2023-11-21T05:13:42;11.13;;;6.53;;
33876;SDS011;20166;51.738;7.158;2023-11-21T05:16:28;9.47;;;5.13;;
33876;SDS011;20166;51.738;7.158;2023-11-21T05:19:15;11.00;;;5.87;;
33876;SDS011;20166;51.738;7.158;2023-11-21T05:22:01;10.07;;;5.23;;
33876;SDS011;20166;51.738;7.158;2023-11-21T05:24:47;12.93;;;6.07;;
33876;SDS011;20166;51.738;7.158;2023-11-21T05:27:36;10.90;;;5.57;;
33876;SDS011;20166;51.738;7.158;2023-11-21T05:30:22;9.57;;;5.87;;
33876;SDS011;20166;51.738;7.158;2023-11-21T05:33:08;9.50;;;5.77;;
33876;SDS011;20166;51.738;7.158;2023-11-21T05:35:54;10.93;;;6.10;;
33876;SDS011;20166;51.738;7.158;2023-11-21T05:38:41;12.17;;;6.33;;
33876;SDS011;20166;51.738;7.158;2023-11-21T05:41:27;19.80;;;6.57;;
33876;SDS011;20166;51.738;7.158;2023-11-21T05:44:15;14.33;;;5.43;;
33876;SDS011;20166;51.738;7.158;2023-11-21T05:47:01;9.67;;;5.73;;
33876;SDS011;20166;51.738;7.158;2023-11-21T05:49:48;10.80;;;6.23;;
33876;SDS011;20166;51.738;7.158;2023-11-21T05:52:36;11.43;;;5.77;;
33876;SDS011;20166;51.738;7.158;2023-11-21T05:55:23;10.63;;;5.97;;
33876;SDS011;20166;51.738;7.158;2023-11-21T05:58:11;9.03;;;5.57;;
33876;SDS011;20166;51.738;7.158;2023-11-21T06:00:59;9.40;;;5.80;;
33876;SDS011;20166;51.738;7.158;2023-11-21T06:03:46;10.60;;;6.07;;
33876;SDS011;20166;51.738;7.158;2023-11-21T06:06:33;14.03;;;5.80;;
33876;SDS011;20166;51.738;7.158;2023-11-21T06:09:19;11.63;;;6.03;;
33876;SDS011;20166;51.738;7.158;2023-11-21T06:12:06;11.67;;;6.83;;
33876;SDS011;20166;51.738;7.158;2023-11-21T06:14:53;15.37;;;8.27;;
33876;SDS011;20166;51.738;7.158;2023-11-21T06:17:42;12.33;;;7.53;;
33876;SDS011;20166;51.738;7.158;2023-11-21T06:20:29;14.47;;;7.67;;
33876;SDS011;20166;51.738;7.158;2023-11-21T06:23:15;17.83;;;6.97;;
33876;SDS011;20166;51.738;7.158;2023-11-21T06:26:02;18.67;;;8.17;;
33876;SDS011;20166;51.738;7.158;2023-11-21T06:28:49;13.83;;;7.20;;
33876;SDS011;20166;51.738;7.158;2023-11-21T06:31:36;16.17;;;6.93;;
33876;SDS011;20166;51.738;7.158;2023-11-21T06:34:24;18.50;;;7.73;;
33876;SDS011;20166;51.738;7.158;2023-11-21T06:37:10;15.40;;;7.10;;
33876;SDS011;20166;51.738;7.158;2023-11-21T06:39:56;12.20;;;5.77;;
33876;SDS011;20166;51.738;7.158;2023-11-21T06:42:43;17.53;;;7.00;;
33876;SDS011;20166;51.738;7.158;2023-11-21T06:45:31;17.00;;;7.53;;
33876;SDS011;20166;51.738;7.158;2023-11-21T06:48:19;13.20;;;7.67;;
33876;SDS011;20166;51.738;7.158;2023-11-21T06:51:07;18.70;;;8.87;;
33876;SDS011;20166;51.738;7.158;2023-11-21T06:53:53;19.83;;;8.00;;
33876;SDS011;20166;51.738;7.158;2023-11-21T06:56:39;24.03;;;9.60;;
33876;SDS011;20166;51.738;7.158;2023-11-21T06:59:26;28.87;;;8.63;;
33876;SDS011;20166;51.738;7.158;2023-11-21T07:02:14;22.93;;;8.67;;
33876;SDS011;20166;51.738;7.158;2023-11-21T07:05:03;19.77;;;8.20;;
33876;SDS011;20166;51.738;7.158;2023-11-21T07:07:52;18.80;;;7.13;;
33876;SDS011;20166;51.738;7.158;2023-11-21T07:10:39;22.27;;;8.17;;
33876;SDS011;20166;51.738;7.158;2023-11-21T07:13:25;26.00;;;9.67;;
33876;SDS011;20166;51.738;7.158;2023-11-21T07:16:11;25.70;;;10.73;;
33876;SDS011;20166;51.738;7.158;2023-11-21T07:18:57;19.90;;;9.77;;
33876;SDS011;20166;51.738;7.158;2023-11-21T07:21:44;22.97;;;9.07;;
33876;SDS011;20166;51.738;7.158;2023-11-21T07:24:31;29.80;;;9.90;;
33876;SDS011;20166;51.738;7.158;2023-11-21T07:27:18;20.73;;;9.43;;
33876;SDS011;20166;51.738;7.158;2023-11-21T07:30:05;24.67;;;10.00;;
33876;SDS011;20166;51.738;7.158;2023-11-21T07:32:53;21.40;;;10.17;;
33876;SDS011;20166;51.738;7.158;2023-11-21T07:35:40;24.53;;;9.93;;
33876;SDS011;20166;51.738;7.158;2023-11-21T07:38:26;21.53;;;10.10;;
33876;SDS011;20166;51.738;7.158;2023-11-21T07:41:15;17.07;;;9.63;;
33876;SDS011;20166;51.738;7.158;2023-11-21T07:44:15;22.27;;;10.60;;
33876;SDS011;20166;51.738;7.158;2023-11-21T07:47:02;24.20;;;10.97;;
33876;SDS011;20166;51.738;7.158;2023-11-21T07:49:49;20.23;;;9.97;;
33876;SDS011;20166;51.738;7.158;2023-11-21T07:52:35;19.13;;;10.03;;
33876;SDS011;20166;51.738;7.158;2023-11-21T07:55:22;20.67;;;10.10;;
33876;SDS011;20166;51.738;7.158;2023-11-21T07:58:10;20.83;;;9.87;;
33876;SDS011;20166;51.738;7.158;2023-11-21T08:00:57;24.10;;;10.60;;
33876;SDS011;20166;51.738;7.158;2023-11-21T08:03:43;19.93;;;9.43;;
33876;SDS011;20166;51.738;7.158;2023-11-21T08:06:30;25.97;;;10.57;;
33876;SDS011;20166;51.738;7.158;2023-11-21T08:09:17;17.93;;;9.37;;
33876;SDS011;20166;51.738;7.158;2023-11-21T08:12:04;17.77;;;9.17;;
33876;SDS011;20166;51.738;7.158;2023-11-21T08:14:52;21.77;;;9.77;;
33876;SDS011;20166;51.738;7.158;2023-11-21T08:17:38;19.17;;;10.37;;
33876;SDS011;20166;51.738;7.158;2023-11-21T08:20:24;17.73;;;9.63;;
33876;SDS011;20166;51.738;7.158;2023-11-21T08:23:10;27.00;;;10.67;;
33876;SDS011;20166;51.738;7.158;2023-11-21T08:25:57;22.63;;;10.13;;
33876;SDS011;20166;51.738;7.158;2023-11-21T08:28:43;16.03;;;9.20;;
33876;SDS011;20166;51.738;7.158;2023-11-21T08:31:31;19.60;;;10.63;;
33876;SDS011;20166;51.738;7.158;2023-11-21T08:34:18;15.97;;;9.10;;
33876;SDS011;20166;51.738;7.158;2023-11-21T08:37:05;16.87;;;9.67;;
33876;SDS011;20166;51.738;7.158;2023-11-21T08:39:57;19.73;;;9.37;;
33876;SDS011;20166;51.738;7.158;2023-11-21T08:42:44;18.37;;;9.37;;
33876;SDS011;20166;51.738;7.158;2023-11-21T08:45:31;26.50;;;9.23;;
33876;SDS011;20166;51.738;7.158;2023-11-21T08:48:20;19.10;;;9.23;;
33876;SDS011;20166;51.738;7.158;2023-11-21T08:51:09;20.47;;;8.97;;
33876;SDS011;20166;51.738;7.158;2023-11-21T08:53:56;17.60;;;9.30;;
33876;SDS011;20166;51.738;7.158;2023-11-21T08:56:45;18.23;;;8.70;;
33876;SDS011;20166;51.738;7.158;2023-11-21T08:59:31;17.47;;;8.43;;
33876;SDS011;20166;51.738;7.158;2023-11-21T09:02:18;21.83;;;9.90;;
33876;SDS011;20166;51.738;7.158;2023-11-21T09:05:06;18.20;;;8.77;;
33876;SDS011;20166;51.738;7.158;2023-11-21T09:07:54;18.00;;;9.40;;
33876;SDS011;20166;51.738;7.158;2023-11-21T09:10:40;21.17;;;9.93;;
33876;SDS011;20166;51.738;7.158;2023-11-21T09:13:28;20.43;;;9.57;;
33876;SDS011;20166;51.738;7.158;2023-11-21T09:16:14;19.07;;;10.17;;
33876;SDS011;20166;51.738;7.158;2023-11-21T09:19:01;24.43;;;10.23;;
33876;SDS011;20166;51.738;7.158;2023-11-21T09:21:50;17.80;;;9.13;;
33876;SDS011;20166;51.738;7.158;2023-11-21T09:24:36;17.23;;;8.67;;
33876;SDS011;20166;51.738;7.158;2023-11-21T09:27:24;18.20;;;9.13;;
33876;SDS011;20166;51.738;7.158;2023-11-21T09:30:11;17.57;;;9.47;;
33876;SDS011;20166;51.738;7.158;2023-11-21T09:32:58;21.67;;;9.97;;
33876;SDS011;20166;51.738;7.158;2023-11-21T09:35:45;20.03;;;9.83;;
33876;SDS011;20166;51.738;7.158;2023-11-21T09:38:34;19.20;;;8.97;;
33876;SDS011;20166;51.738;7.158;2023-11-21T09:41:21;20.07;;;9.93;;
33876;SDS011;20166;51.738;7.158;2023-11-21T09:44:17;18.53;;;9.97;;
33876;SDS011;20166;51.738;7.158;2023-11-21T09:47:04;18.27;;;10.03;;
33876;SDS011;20166;51.738;7.158;2023-11-21T09:49:56;17.17;;;8.87;;
33876;SDS011;20166;51.738;7.158;2023-11-21T09:52:49;20.67;;;10.00;;
33876;SDS011;20166;51.738;7.158;2023-11-21T09:55:56;22.73;;;10.07;;
33876;SDS011;20166;51.738;7.158;2023-11-21T09:58:45;18.60;;;9.40;;
33876;SDS011;20166;51.738;7.158;2023-11-21T10:01:33;17.10;;;9.33;;
33876;SDS011;20166;51.738;7.158;2023-11-21T10:04:22;16.60;;;9.33;;
33876;SDS011;20166;51.738;7.158;2023-11-21T10:07:08;18.57;;;9.53;;
33876;SDS011;20166;51.738;7.158;2023-11-21T10:09:55;19.37;;;10.43;;
33876;SDS011;20166;51.738;7.158;2023-11-21T10:12:44;17.60;;;9.57;;
33876;SDS011;20166;51.738;7.158;2023-11-21T10:15:38;28.57;;;10.67;;
33876;SDS011;20166;51.738;7.158;2023-11-21T10:18:24;19.10;;;8.53;;
33876;SDS011;20166;51.738;7.158;2023-11-21T10:21:13;18.27;;;9.33;;
33876;SDS011;20166;51.738;7.158;2023-11-21T10:23:59;18.03;;;9.80;;
33876;SDS011;20166;51.738;7.158;2023-11-21T10:26:46;16.73;;;8.57;;
33876;SDS011;20166;51.738;7.158;2023-11-21T10:29:40;18.27;;;8.30;;
33876;SDS011;20166;51.738;7.158;2023-11-21T10:32:28;18.90;;;8.50;;
33876;SDS011;20166;51.738;7.158;2023-11-21T10:35:17;17.10;;;8.67;;
33876;SDS011;20166;51.738;7.158;2023-11-21T10:38:03;17.63;;;8.87;;
33876;SDS011;20166;51.738;7.158;2023-11-21T10:40:50;18.60;;;9.30;;
33876;SDS011;20166;51.738;7.158;2023-11-21T10:43:38;16.70;;;7.77;;
33876;SDS011;20166;51.738;7.158;2023-11-21T10:46:25;16.93;;;8.60;;
33876;SDS011;20166;51.738;7.158;2023-11-21T10:49:15;19.37;;;8.67;;
33876;SDS011;20166;51.738;7.158;2023-11-21T10:52:02;16.27;;;7.57;;
33876;SDS011;20166;51.738;7.158;2023-11-21T10:54:49;21.17;;;8.83;;
33876;SDS011;20166;51.738;7.158;2023-11-21T10:57:36;27.47;;;8.77;;
33876;SDS011;20166;51.738;7.158;2023-11-21T11:00:24;20.03;;;9.17;;
33876;SDS011;20166;51.738;7.158;2023-11-21T11:03:12;22.30;;;8.40;;
33876;SDS011;20166;51.738;7.158;2023-11-21T11:06:01;21.03;;;9.17;;
33876;SDS011;20166;51.738;7.158;2023-11-21T11:08:48;20.03;;;9.20;;
33876;SDS011;20166;51.738;7.158;2023-11-21T11:11:35;22.53;;;9.37;;
33876;SDS011;20166;51.738;7.158;2023-11-21T11:14:24;20.03;;;9.50;;
33876;SDS011;20166;51.738;7.158;2023-11-21T11:17:11;15.53;;;8.80;;
33876;SDS011;20166;51.738;7.158;2023-11-21T11:20:00;22.93;;;8.83;;
33876;SDS011;20166;51.738;7.158;2023-11-21T11:22:56;22.50;;;8.73;;
33876;SDS011;20166;51.738;7.158;2023-11-21T11:26:01;21.13;;;8.70;;
33876;SDS011;20166;51.738;7.158;2023-11-21T11:28:57;19.77;;;8.67;;
33876;SDS011;20166;51.738;7.158;2023-11-21T11:31:54;19.50;;;9.17;;
33876;SDS011;20166;51.738;7.158;2023-11-21T11:34:53;16.23;;;8.47;;
33876;SDS011;20166;51.738;7.158;2023-11-21T11:37:47;19.10;;;8.57;;
33876;SDS011;20166;51.738;7.158;2023-11-21T11:40:40;18.80;;;8.97;;
33876;SDS011;20166;51.738;7.158;2023-11-21T11:43:27;21.40;;;9.27;;
33876;SDS011;20166;51.738;7.158;2023-11-21T11:46:14;18.23;;;8.43;;
33876;SDS011;20166;51.738;7.158;2023-11-21T11:49:02;17.50;;;9.00;;
33876;SDS011;20166;51.738;7.158;2023-11-21T11:51:57;17.50;;;8.37;;
33876;SDS011;20166;51.738;7.158;2023-11-21T11:55:21;16.43;;;7.67;;
33876;SDS011;20166;51.738;7.158;2023-11-21T11:58:09;14.90;;;7.70;;
33876;SDS011;20166;51.738;7.158;2023-11-21T12:00:56;13.77;;;7.67;;
33876;SDS011;20166;51.738;7.158;2023-11-21T12:03:43;15.17;;;7.27;;
33876;SDS011;20166;51.738;7.158;2023-11-21T12:06:33;15.90;;;7.40;;
33876;SDS011;20166;51.738;7.158;2023-11-21T12:09:20;13.40;;;7.17;;
33876;SDS011;20166;51.738;7.158;2023-11-21T12:12:09;16.90;;;7.97;;
33876;SDS011;20166;51.738;7.158;2023-11-21T12:14:55;14.53;;;7.33;;
33876;SDS011;20166;51.738;7.158;2023-11-21T12:17:42;14.17;;;6.87;;
33876;SDS011;20166;51.738;7.158;2023-11-21T12:20:30;19.97;;;8.10;;
33876;SDS011;20166;51.738;7.158;2023-11-21T12:23:16;14.50;;;7.30;;
33876;SDS011;20166;51.738;7.158;2023-11-21T12:26:02;15.77;;;7.03;;
33876;SDS011;20166;51.738;7.158;2023-11-21T12:28:53;15.93;;;7.50;;
33876;SDS011;20166;51.738;7.158;2023-11-21T12:31:40;14.97;;;6.90;;
33876;SDS011;20166;51.738;7.158;2023-11-21T12:34:27;13.00;;;7.30;;
33876;SDS011;20166;51.738;7.158;2023-11-21T12:37:14;15.37;;;7.37;;
33876;SDS011;20166;51.738;7.158;2023-11-21T12:40:01;14.97;;;6.73;;
33876;SDS011;20166;51.738;7.158;2023-11-21T12:42:47;14.00;;;7.40;;
33876;SDS011;20166;51.738;7.158;2023-11-21T12:45:36;14.47;;;6.40;;
33876;SDS011;20166;51.738;7.158;2023-11-21T12:48:23;15.93;;;6.97;;
33876;SDS011;20166;51.738;7.158;2023-11-21T12:51:09;14.63;;;7.17;;
33876;SDS011;20166;51.738;7.158;2023-11-21T12:53:57;11.67;;;6.30;;
33876;SDS011;20166;51.738;7.158;2023-11-21T12:56:44;13.40;;;6.47;;
33876;SDS011;20166;51.738;7.158;2023-11-21T12:59:33;15.10;;;6.87;;
33876;SDS011;20166;51.738;7.158;2023-11-21T13:02:21;13.90;;;6.83;;
33876;SDS011;20166;51.738;7.158;2023-11-21T13:05:09;14.57;;;7.57;;
33876;SDS011;20166;51.738;7.158;2023-11-21T13:08:07;14.37;;;7.90;;
33876;SDS011;20166;51.738;7.158;2023-11-21T13:10:58;17.23;;;7.87;;
33876;SDS011;20166;51.738;7.158;2023-11-21T13:13:45;19.17;;;6.97;;
33876;SDS011;20166;51.738;7.158;2023-11-21T13:16:31;14.10;;;7.10;;
33876;SDS011;20166;51.738;7.158;2023-11-21T13:19:19;13.50;;;6.23;;
33876;SDS011;20166;51.738;7.158;2023-11-21T13:22:06;14.33;;;6.20;;
33876;SDS011;20166;51.738;7.158;2023-11-21T13:24:56;15.13;;;5.83;;
33876;SDS011;20166;51.738;7.158;2023-11-21T13:27:42;12.17;;;5.43;;
33876;SDS011;20166;51.738;7.158;2023-11-21T13:30:30;11.17;;;5.57;;
33876;SDS011;20166;51.738;7.158;2023-11-21T13:33:18;10.90;;;5.90;;
33876;SDS011;20166;51.738;7.158;2023-11-21T13:36:13;11.30;;;5.40;;
33876;SDS011;20166;51.738;7.158;2023-11-21T13:39:07;11.97;;;5.83;;
33876;SDS011;20166;51.738;7.158;2023-11-21T13:42:01;12.63;;;5.30;;
33876;SDS011;20166;51.738;7.158;2023-11-21T13:44:48;10.90;;;5.00;;
33876;SDS011;20166;51.738;7.158;2023-11-21T13:47:35;9.97;;;4.63;;
33876;SDS011;20166;51.738;7.158;2023-11-21T13:50:23;12.03;;;5.20;;
33876;SDS011;20166;51.738;7.158;2023-11-21T13:53:15;8.87;;;5.10;;
33876;SDS011;20166;51.738;7.158;2023-11-21T13:56:07;10.73;;;5.07;;
33876;SDS011;20166;51.738;7.158;2023-11-21T13:58:54;12.83;;;6.43;;
33876;SDS011;20166;51.738;7.158;2023-11-21T14:01:41;14.53;;;6.73;;
33876;SDS011;20166;51.738;7.158;2023-11-21T14:04:39;10.23;;;5.17;;
33876;SDS011;20166;51.738;7.158;2023-11-21T14:07:39;11.03;;;5.53;;
33876;SDS011;20166;51.738;7.158;2023-11-21T14:10:34;10.07;;;5.30;;
33876;SDS011;20166;51.738;7.158;2023-11-21T14:13:27;12.47;;;6.27;;
33876;SDS011;20166;51.738;7.158;2023-11-21T14:16:13;10.43;;;5.17;;
33876;SDS011;20166;51.738;7.158;2023-11-21T14:19:01;13.93;;;5.93;;
33876;SDS011;20166;51.738;7.158;2023-11-21T14:21:58;9.23;;;5.07;;
33876;SDS011;20166;51.738;7.158;2023-11-21T14:24:45;8.87;;;4.97;;
33876;SDS011;20166;51.738;7.158;2023-11-21T14:27:33;9.30;;;5.00;;
33876;SDS011;20166;51.738;7.158;2023-11-21T14:30:20;10.80;;;4.90;;
33876;SDS011;20166;51.738;7.158;2023-11-21T14:33:09;8.43;;;4.77;;
33876;SDS011;20166;51.738;7.158;2023-11-21T14:35:56;7.40;;;4.53;;
33876;SDS011;20166;51.738;7.158;2023-11-21T14:38:43;9.77;;;4.80;;
33876;SDS011;20166;51.738;7.158;2023-11-21T14:41:30;8.93;;;4.83;;
33876;SDS011;20166;51.738;7.158;2023-11-21T14:44:17;8.90;;;5.13;;
33876;SDS011;20166;51.738;7.158;2023-11-21T14:47:04;9.80;;;5.13;;
33876;SDS011;20166;51.738;7.158;2023-11-21T14:50:00;9.43;;;5.17;;
33876;SDS011;20166;51.738;7.158;2023-11-21T14:53:06;8.47;;;4.87;;
33876;SDS011;20166;51.738;7.158;2023-11-21T14:55:53;12.00;;;5.03;;
33876;SDS011;20166;51.738;7.158;2023-11-21T14:58:44;9.13;;;5.53;;
33876;SDS011;20166;51.738;7.158;2023-11-21T15:01:32;7.07;;;4.33;;
33876;SDS011;20166;51.738;7.158;2023-11-21T15:04:29;10.30;;;5.30;;
33876;SDS011;20166;51.738;7.158;2023-11-21T15:07:21;10.30;;;5.43;;
33876;SDS011;20166;51.738;7.158;2023-11-21T15:10:09;11.53;;;6.27;;
33876;SDS011;20166;51.738;7.158;2023-11-21T15:12:59;9.17;;;5.30;;
33876;SDS011;20166;51.738;7.158;2023-11-21T15:15:47;13.23;;;6.10;;
33876;SDS011;20166;51.738;7.158;2023-11-21T15:18:37;11.70;;;5.87;;
33876;SDS011;20166;51.738;7.158;2023-11-21T15:21:23;10.33;;;6.30;;
33876;SDS011;20166;51.738;7.158;2023-11-21T15:24:10;20.13;;;6.93;;
33876;SDS011;20166;51.738;7.158;2023-11-21T15:26:56;10.80;;;6.20;;
33876;SDS011;20166;51.738;7.158;2023-11-21T15:29:42;14.30;;;7.60;;
33876;SDS011;20166;51.738;7.158;2023-11-21T15:32:29;11.83;;;6.63;;
33876;SDS011;20166;51.738;7.158;2023-11-21T15:35:16;11.63;;;5.70;;
33876;SDS011;20166;51.738;7.158;2023-11-21T15:38:03;8.50;;;5.23;;
33876;SDS011;20166;51.738;7.158;2023-11-21T15:40:49;11.23;;;6.20;;
33876;SDS011;20166;51.738;7.158;2023-11-21T15:43:35;10.90;;;6.47;;
33876;SDS011;20166;51.738;7.158;2023-11-21T15:46:22;12.77;;;5.80;;
33876;SDS011;20166;51.738;7.158;2023-11-21T15:49:09;11.03;;;6.93;;
33876;SDS011;20166;51.738;7.158;2023-11-21T15:51:59;10.37;;;5.90;;
33876;SDS011;20166;51.738;7.158;2023-11-21T15:54:45;10.37;;;6.13;;
33876;SDS011;20166;51.738;7.158;2023-11-21T15:57:32;9.83;;;5.50;;
33876;SDS011;20166;51.738;7.158;2023-11-21T16:00:18;9.63;;;5.77;;
33876;SDS011;20166;51.738;7.158;2023-11-21T16:03:07;9.13;;;5.53;;
33876;SDS011;20166;51.738;7.158;2023-11-21T16:05:54;11.77;;;5.70;;
33876;SDS011;20166;51.738;7.158;2023-11-21T16:08:42;11.97;;;6.23;;
33876;SDS011;20166;51.738;7.158;2023-11-21T16:11:28;10.07;;;5.47;;
33876;SDS011;20166;51.738;7.158;2023-11-21T16:14:15;11.37;;;5.57;;
33876;SDS011;20166;51.738;7.158;2023-11-21T16:17:04;9.00;;;5.50;;
33876;SDS011;20166;51.738;7.158;2023-11-21T16:19:51;9.70;;;5.40;;
33876;SDS011;20166;51.738;7.158;2023-11-21T16:22:40;8.40;;;5.53;;
33876;SDS011;20166;51.738;7.158;2023-11-21T16:25:29;10.33;;;5.90;;
33876;SDS011;20166;51.738;7.158;2023-11-21T16:28:16;8.13;;;5.27;;
33876;SDS011;20166;51.738;7.158;2023-11-21T16:31:03;10.37;;;5.40;;
33876;SDS011;20166;51.738;7.158;2023-11-21T16:33:50;9.33;;;5.43;;
33876;SDS011;20166;51.738;7.158;2023-11-21T16:36:36;9.13;;;4.83;;
33876;SDS011;20166;51.738;7.158;2023-11-21T16:39:23;8.40;;;4.73;;
33876;SDS011;20166;51.738;7.158;2023-11-21T16:42:11;9.73;;;5.03;;